createdAt,value
2018-09-30T00:01:00.629Z,6.90
2018-09-30T00:03:29.166Z,9.10
2018-09-30T00:05:57.665Z,7.17
2018-09-30T00:08:26.166Z,6.20
2018-09-30T00:10:54.853Z,5.70
2018-09-30T00:13:23.361Z,6.60
2018-09-30T00:15:51.913Z,6.60
2018-09-30T00:18:20.444Z,6.10
2018-09-30T00:20:48.987Z,5.33
2018-09-30T00:23:17.734Z,7.58
2018-09-30T00:25:52.368Z,9.60
2018-09-30T00:28:21.168Z,6.00
2018-09-30T00:30:49.848Z,10.83
2018-09-30T00:33:18.701Z,8.60
2018-09-30T00:35:47.435Z,10.30
2018-09-30T00:43:10.176Z,8.20
2018-09-30T00:45:39.010Z,10.47
2018-09-30T00:48:07.522Z,5.92
2018-09-30T00:50:36.344Z,11.00
2018-09-30T00:53:05.268Z,8.83
2018-09-30T00:55:33.734Z,5.90
2018-09-30T00:58:02.435Z,7.37
2018-09-30T01:00:31.146Z,8.10
2018-09-30T01:02:59.844Z,6.57
2018-09-30T01:05:28.466Z,6.40
2018-09-30T01:07:57.106Z,11.73
2018-09-30T01:10:25.654Z,7.50
2018-09-30T01:12:54.261Z,6.93
2018-09-30T01:15:22.835Z,7.53
2018-09-30T01:17:51.358Z,5.80
2018-09-30T01:20:20.010Z,7.07
2018-09-30T01:22:48.640Z,7.42
2018-09-30T01:25:17.740Z,4.42
2018-09-30T01:27:46.758Z,6.17
2018-09-30T01:35:09.427Z,7.10
2018-09-30T01:37:38.066Z,11.03
2018-09-30T01:40:06.893Z,5.23
2018-09-30T01:42:35.702Z,9.43
2018-09-30T01:45:04.277Z,6.90
2018-09-30T01:47:32.810Z,6.20
2018-09-30T01:50:01.919Z,9.97
2018-09-30T01:52:55.211Z,15.60
2018-09-30T01:55:23.817Z,15.83
2018-09-30T01:57:52.429Z,6.17
2018-09-30T02:00:20.974Z,9.48
2018-09-30T02:02:49.562Z,6.58
2018-09-30T02:05:18.268Z,8.27
2018-09-30T02:07:47.789Z,10.07
2018-09-30T02:10:18.336Z,10.08
2018-09-30T02:12:46.861Z,8.17
2018-09-30T02:20:12.676Z,8.97
2018-09-30T02:22:41.191Z,7.07
2018-09-30T02:25:09.729Z,7.67
2018-09-30T02:27:41.134Z,8.50
2018-09-30T02:30:10.130Z,8.40
2018-09-30T02:32:38.614Z,9.27
2018-09-30T02:35:07.219Z,7.57
2018-09-30T02:37:35.737Z,9.20
2018-09-30T02:40:04.317Z,14.03
2018-09-30T02:42:32.819Z,11.33
2018-09-30T02:45:01.309Z,8.33
2018-09-30T02:47:29.799Z,6.23
2018-09-30T02:49:58.838Z,6.57
2018-09-30T02:52:27.329Z,7.40
2018-09-30T02:54:56.385Z,11.67
2018-09-30T02:57:24.909Z,9.37
2018-09-30T02:59:53.795Z,8.03
2018-09-30T03:02:22.278Z,11.43
2018-09-30T03:04:50.798Z,8.60
2018-09-30T03:07:24.505Z,9.60
2018-09-30T03:09:53.510Z,11.27
2018-09-30T03:12:22.007Z,9.93
2018-09-30T03:14:50.541Z,15.70
2018-09-30T03:17:19.079Z,6.70
2018-09-30T03:19:47.585Z,8.63
2018-09-30T03:27:09.526Z,17.47
2018-09-30T03:29:38.778Z,16.97
2018-09-30T03:32:07.308Z,16.20
2018-09-30T03:34:35.866Z,19.60
2018-09-30T03:37:04.594Z,12.57
2018-09-30T03:39:33.479Z,13.40
2018-09-30T03:42:01.986Z,11.73
2018-09-30T03:44:30.474Z,14.28
2018-09-30T03:46:58.957Z,20.30
2018-09-30T03:49:28.102Z,16.42
2018-09-30T03:51:56.593Z,16.13
2018-09-30T03:54:25.097Z,14.20
2018-09-30T03:56:53.616Z,12.03
2018-09-30T03:59:22.115Z,11.50
2018-09-30T04:01:50.633Z,10.40
2018-09-30T04:04:19.154Z,12.23
2018-09-30T04:06:47.725Z,9.27
2018-09-30T04:09:17.402Z,8.43
2018-09-30T04:11:46.377Z,7.70
2018-09-30T04:19:11.194Z,9.53
2018-09-30T04:21:39.673Z,11.20
2018-09-30T04:24:09.181Z,8.77
2018-09-30T04:26:38.902Z,9.20
2018-09-30T04:29:07.515Z,8.40
2018-09-30T04:31:36.658Z,8.90
2018-09-30T04:34:05.805Z,11.73
2018-09-30T04:36:35.142Z,10.50
2018-09-30T04:39:04.795Z,9.73
2018-09-30T04:41:33.345Z,8.00
2018-09-30T04:44:03.115Z,11.83
2018-09-30T04:46:31.599Z,9.60
2018-09-30T04:49:00.145Z,13.53
2018-09-30T04:51:28.626Z,8.93
2018-09-30T04:53:57.135Z,9.60
2018-09-30T04:56:25.970Z,10.90
2018-09-30T04:58:54.487Z,11.13
2018-09-30T05:01:22.985Z,10.17
2018-09-30T05:03:51.546Z,8.07
2018-09-30T05:06:20.038Z,21.53
2018-09-30T05:08:48.559Z,14.10
2018-09-30T05:11:17.463Z,8.78
2018-09-30T05:13:45.981Z,14.03
2018-09-30T05:21:12.634Z,28.83
2018-09-30T05:23:41.101Z,12.50
2018-09-30T05:26:09.960Z,10.33
2018-09-30T05:28:38.504Z,9.63
2018-09-30T05:31:08.257Z,11.07
2018-09-30T05:33:36.951Z,8.30
2018-09-30T05:36:06.196Z,9.05
2018-09-30T05:38:35.217Z,9.93
2018-09-30T05:41:03.710Z,11.20
2018-09-30T05:43:32.643Z,8.50
2018-09-30T05:46:01.186Z,11.37
2018-09-30T05:48:29.857Z,9.68
2018-09-30T05:50:58.409Z,10.45
2018-09-30T05:53:27.111Z,6.57
2018-09-30T05:55:56.328Z,12.63
2018-09-30T05:58:25.565Z,8.27
2018-09-30T06:00:54.093Z,9.80
2018-09-30T06:03:22.657Z,7.63
2018-09-30T06:05:51.173Z,8.93
2018-09-30T06:08:19.720Z,12.67
2018-09-30T06:10:48.234Z,8.90
2018-09-30T06:13:17.643Z,9.20
2018-09-30T06:15:46.174Z,6.20
2018-09-30T06:23:13.673Z,10.13
2018-09-30T06:25:42.259Z,8.57
2018-09-30T06:28:10.772Z,11.10
2018-09-30T06:30:39.375Z,7.53
2018-09-30T06:33:07.856Z,12.20
2018-09-30T06:35:37.650Z,12.37
2018-09-30T06:38:06.327Z,13.67
2018-09-30T06:40:34.909Z,10.97
2018-09-30T06:43:03.817Z,8.85
2018-09-30T06:45:33.497Z,9.13
2018-09-30T06:48:02.698Z,6.67
2018-09-30T06:50:31.600Z,9.20
2018-09-30T06:53:00.179Z,7.97
2018-09-30T06:55:28.878Z,8.03
2018-09-30T06:57:57.626Z,8.65
2018-09-30T07:00:26.122Z,10.13
2018-09-30T07:02:54.859Z,9.40
2018-09-30T07:05:23.400Z,10.48
2018-09-30T07:07:52.269Z,9.40
2018-09-30T07:10:20.754Z,9.00
2018-09-30T07:12:49.447Z,9.60
2018-09-30T07:15:17.975Z,9.10
2018-09-30T07:17:46.465Z,27.58
2018-09-30T07:25:13.245Z,14.20
2018-09-30T07:27:41.809Z,6.90
2018-09-30T07:30:10.484Z,7.13
2018-09-30T07:32:38.989Z,11.43
2018-09-30T07:35:07.521Z,6.20
2018-09-30T07:37:36.524Z,13.77
2018-09-30T07:40:05.122Z,9.50
2018-09-30T07:42:33.631Z,12.25
2018-09-30T07:45:02.123Z,6.93
2018-09-30T07:47:31.218Z,13.47
2018-09-30T07:49:59.698Z,11.80
2018-09-30T07:52:28.248Z,7.43
2018-09-30T07:54:56.739Z,6.80
2018-09-30T07:57:25.258Z,7.17
2018-09-30T07:59:53.734Z,8.07
2018-09-30T08:02:22.387Z,16.00
2018-09-30T08:04:50.959Z,12.13
2018-09-30T08:07:19.486Z,7.25
2018-09-30T08:09:48.017Z,8.43
2018-09-30T08:12:17.397Z,13.43
2018-09-30T08:14:45.866Z,9.73
2018-09-30T08:22:10.403Z,14.77
2018-09-30T08:24:38.966Z,13.40
2018-09-30T08:27:08.490Z,12.68
2018-09-30T08:29:37.435Z,8.53
2018-09-30T08:32:05.958Z,10.77
2018-09-30T08:34:34.442Z,12.00
2018-09-30T08:37:02.977Z,9.07
2018-09-30T08:39:32.106Z,10.37
2018-09-30T08:42:00.622Z,10.87
2018-09-30T08:44:28.937Z,10.45
2018-09-30T08:46:57.569Z,10.90
2018-09-30T08:49:26.126Z,19.60
2018-09-30T08:51:54.672Z,10.70
2018-09-30T08:54:23.210Z,10.43
2018-09-30T08:56:51.727Z,11.13
2018-09-30T08:59:20.327Z,14.20
2018-09-30T09:01:48.875Z,15.70
2018-09-30T09:04:18.718Z,11.70
2018-09-30T09:06:47.277Z,13.03
2018-09-30T09:14:11.143Z,12.50
2018-09-30T09:16:39.647Z,16.80
2018-09-30T09:19:08.161Z,13.43
2018-09-30T09:21:37.375Z,13.10
2018-09-30T09:24:05.998Z,11.43
2018-09-30T09:26:34.555Z,9.45
2018-09-30T09:29:03.146Z,12.23
2018-09-30T09:31:31.664Z,15.55
2018-09-30T09:34:00.266Z,13.10
2018-09-30T09:36:29.590Z,16.05
2018-09-30T09:38:58.074Z,15.97
2018-09-30T09:41:26.804Z,12.63
2018-09-30T09:43:55.329Z,12.73
2018-09-30T09:46:23.837Z,14.53
2018-09-30T09:48:52.386Z,12.87
2018-09-30T09:51:21.334Z,12.60
2018-09-30T09:53:49.934Z,15.33
2018-09-30T09:56:18.523Z,14.40
2018-09-30T09:58:47.216Z,16.87
2018-09-30T10:06:09.910Z,14.47
2018-09-30T10:08:40.748Z,31.63
2018-09-30T10:11:09.873Z,15.87
2018-09-30T10:13:38.437Z,18.63
2018-09-30T10:16:07.124Z,18.20
2018-09-30T10:18:35.635Z,24.15
2018-09-30T10:21:04.599Z,30.17
2018-09-30T10:23:33.189Z,26.45
2018-09-30T10:26:01.799Z,20.93
2018-09-30T10:28:30.387Z,27.48
2018-09-30T10:30:58.910Z,26.00
2018-09-30T10:33:27.466Z,32.67
2018-09-30T10:35:56.054Z,25.50
2018-09-30T10:38:24.736Z,26.27
2018-09-30T10:40:55.117Z,24.70
2018-09-30T10:43:24.063Z,26.33
2018-09-30T10:45:52.638Z,32.13
2018-09-30T10:48:21.277Z,30.08
2018-09-30T10:50:49.934Z,27.93
2018-09-30T10:53:18.445Z,24.40
2018-09-30T10:55:47.075Z,28.00
2018-09-30T11:03:13.590Z,32.80
2018-09-30T11:05:42.161Z,28.93
2018-09-30T11:08:10.673Z,26.93
2018-09-30T11:10:39.262Z,25.27
2018-09-30T11:13:07.805Z,30.30
2018-09-30T11:15:36.345Z,25.87
2018-09-30T11:18:06.113Z,31.43
2018-09-30T11:20:34.909Z,31.83
2018-09-30T11:23:03.519Z,28.67
2018-09-30T11:25:32.170Z,32.90
2018-09-30T11:28:00.903Z,29.40
2018-09-30T11:30:30.054Z,33.88
2018-09-30T11:32:59.022Z,28.83
2018-09-30T11:35:27.976Z,30.00
2018-09-30T11:37:56.553Z,30.80
2018-09-30T11:40:25.152Z,34.37
2018-09-30T11:42:53.735Z,30.33
2018-09-30T11:45:22.819Z,26.17
2018-09-30T11:47:51.783Z,30.07
2018-09-30T11:50:20.417Z,32.50
2018-09-30T11:52:49.942Z,31.77
2018-09-30T11:55:18.556Z,31.40
2018-09-30T11:57:47.475Z,34.03
2018-09-30T12:00:17.639Z,35.33
2018-09-30T12:02:46.747Z,30.57
2018-09-30T12:10:14.343Z,30.73
2018-09-30T12:12:43.099Z,29.20
2018-09-30T12:15:11.629Z,25.90
2018-09-30T12:17:40.169Z,30.63
2018-09-30T12:20:10.149Z,32.13
2018-09-30T12:22:39.437Z,27.97
2018-09-30T12:25:08.023Z,31.70
2018-09-30T12:27:36.543Z,34.70
2018-09-30T12:30:05.215Z,33.93
2018-09-30T12:32:34.445Z,26.93
2018-09-30T12:35:03.033Z,31.50
2018-09-30T12:37:31.631Z,32.13
2018-09-30T12:40:00.222Z,29.20
2018-09-30T12:42:28.791Z,28.83
2018-09-30T12:44:57.350Z,25.30
2018-09-30T12:47:26.375Z,29.57
2018-09-30T12:49:54.865Z,26.60
2018-09-30T12:52:23.406Z,29.70
2018-09-30T12:54:52.683Z,29.60
2018-09-30T12:57:22.354Z,27.98
2018-09-30T12:59:50.868Z,28.27
2018-09-30T13:02:19.450Z,25.45
2018-09-30T13:04:48.041Z,31.03
2018-09-30T13:07:18.343Z,30.60
2018-09-30T13:09:46.913Z,28.33
2018-09-30T13:17:13.873Z,29.00
2018-09-30T13:19:42.524Z,29.20
2018-09-30T13:22:11.060Z,30.53
2018-09-30T13:24:40.806Z,28.33
2018-09-30T13:27:09.430Z,29.97
2018-09-30T13:29:37.942Z,30.37
2018-09-30T13:32:06.730Z,32.00
2018-09-30T13:34:35.257Z,27.30
2018-09-30T13:37:03.871Z,31.00
2018-09-30T13:39:32.494Z,25.90
2018-09-30T13:42:01.076Z,30.00
2018-09-30T13:44:29.680Z,30.77
2018-09-30T13:46:58.351Z,26.07
2018-09-30T13:49:27.359Z,25.80
2018-09-30T13:51:55.912Z,26.03
2018-09-30T13:54:24.527Z,26.43
2018-09-30T13:56:53.062Z,25.47
2018-09-30T13:59:21.672Z,28.80
2018-09-30T14:01:50.290Z,28.77
2018-09-30T14:04:18.851Z,26.47
2018-09-30T14:06:47.435Z,30.50
2018-09-30T14:09:17.893Z,24.57
2018-09-30T14:11:46.610Z,26.70
2018-09-30T14:19:09.850Z,29.60
2018-09-30T14:21:39.870Z,28.90
2018-09-30T14:24:08.405Z,27.43
2018-09-30T14:26:36.961Z,32.43
2018-09-30T14:29:05.627Z,26.30
2018-09-30T14:31:34.471Z,27.67
2018-09-30T14:34:03.082Z,29.20
2018-09-30T14:36:31.797Z,25.65
2018-09-30T14:39:00.298Z,24.80
2018-09-30T14:41:28.869Z,26.47
2018-09-30T14:43:57.630Z,40.53
2018-09-30T14:46:26.137Z,26.45
2018-09-30T14:48:54.654Z,27.93
2018-09-30T14:51:23.438Z,25.10
2018-09-30T14:53:51.933Z,27.67
2018-09-30T14:56:20.445Z,26.87
2018-09-30T14:58:48.921Z,31.63
2018-09-30T15:01:17.465Z,23.67
2018-09-30T15:03:45.998Z,26.93
2018-09-30T15:11:12.224Z,27.57
2018-09-30T15:13:40.718Z,27.30
2018-09-30T15:16:09.320Z,28.43
2018-09-30T15:18:37.871Z,25.13
2018-09-30T15:21:07.800Z,28.80
2018-09-30T15:23:36.309Z,25.17
2018-09-30T15:26:04.899Z,25.07
2018-09-30T15:28:33.390Z,24.27
2018-09-30T15:31:02.029Z,28.90
2018-09-30T15:33:30.691Z,26.70
2018-09-30T15:35:59.307Z,23.40
2018-09-30T15:38:27.976Z,24.33
2018-09-30T15:40:56.609Z,22.27
2018-09-30T15:43:25.116Z,27.60
2018-09-30T15:45:53.584Z,22.87
2018-09-30T15:48:23.562Z,22.87
2018-09-30T15:50:52.038Z,30.37
2018-09-30T15:53:20.874Z,25.05
2018-09-30T15:55:49.374Z,27.13
2018-09-30T15:58:17.837Z,29.40
2018-09-30T16:00:46.311Z,24.00
2018-09-30T16:08:14.898Z,29.70
2018-09-30T16:10:43.491Z,32.07
2018-09-30T16:13:12.099Z,30.10
2018-09-30T16:15:40.660Z,33.53
2018-09-30T16:18:09.175Z,38.93
2018-09-30T16:20:37.689Z,28.63
2018-09-30T16:23:06.791Z,32.40
2018-09-30T16:25:35.282Z,35.63
2018-09-30T16:28:03.854Z,31.83
2018-09-30T16:30:32.568Z,26.17
2018-09-30T16:33:01.075Z,34.80
2018-09-30T16:35:29.584Z,30.57
2018-09-30T16:37:58.641Z,33.47
2018-09-30T16:40:27.162Z,38.83
2018-09-30T16:42:55.678Z,31.73
2018-09-30T16:45:24.262Z,36.37
2018-09-30T16:47:52.758Z,34.77
2018-09-30T16:50:21.414Z,35.08
2018-09-30T16:52:50.892Z,36.93
2018-09-30T16:55:19.975Z,35.93
2018-09-30T16:57:48.529Z,37.08
2018-09-30T17:00:18.862Z,34.18
2018-09-30T17:02:47.382Z,40.17
2018-09-30T17:05:18.770Z,33.38
2018-09-30T17:07:47.278Z,35.70
2018-09-30T17:10:17.755Z,41.95
2018-09-30T17:12:46.320Z,31.10
2018-09-30T17:20:11.433Z,36.37
2018-09-30T17:22:40.102Z,38.47
2018-09-30T17:25:08.613Z,35.97
2018-09-30T17:27:37.184Z,38.30
2018-09-30T17:30:05.806Z,39.90
2018-09-30T17:32:34.332Z,42.62
2018-09-30T17:35:02.878Z,40.30
2018-09-30T17:37:31.446Z,38.42
2018-09-30T17:39:59.962Z,39.10
2018-09-30T17:42:28.829Z,40.52
2018-09-30T17:44:57.422Z,43.80
2018-09-30T17:47:26.198Z,34.73
2018-09-30T17:49:54.870Z,45.90
2018-09-30T17:52:23.466Z,41.90
2018-09-30T17:54:52.092Z,39.00
2018-09-30T17:57:21.673Z,49.65
2018-09-30T17:59:50.279Z,36.77
2018-09-30T18:02:18.809Z,47.00
2018-09-30T18:04:47.390Z,44.90
2018-09-30T18:07:17.379Z,50.50
2018-09-30T18:09:46.293Z,56.03
2018-09-30T18:17:13.525Z,49.60
2018-09-30T18:19:42.136Z,48.67
2018-09-30T18:22:10.923Z,56.80
2018-09-30T18:24:39.538Z,50.63
2018-09-30T18:27:08.070Z,48.33
2018-09-30T18:29:36.680Z,53.20
2018-09-30T18:32:05.908Z,50.43
2018-09-30T18:34:34.438Z,54.40
2018-09-30T18:37:03.010Z,58.67
2018-09-30T18:39:33.254Z,54.27
2018-09-30T18:42:01.807Z,53.27
2018-09-30T18:44:30.335Z,53.03
2018-09-30T18:46:59.525Z,51.10
2018-09-30T18:49:28.243Z,53.60
2018-09-30T18:51:56.762Z,55.97
2018-09-30T18:54:25.392Z,54.53
2018-09-30T18:56:54.119Z,41.87
2018-09-30T18:59:23.460Z,43.57
2018-09-30T19:01:52.224Z,45.63
2018-09-30T19:04:21.056Z,43.28
2018-09-30T19:06:50.151Z,45.00
2018-09-30T19:09:18.788Z,49.67
2018-09-30T19:11:48.159Z,53.78
2018-09-30T19:14:18.753Z,45.04
2018-09-30T19:16:47.360Z,42.20
2018-09-30T19:19:17.531Z,44.40
2018-09-30T19:21:46.092Z,47.77
2018-09-30T19:34:07.514Z,50.33
2018-09-30T19:36:36.009Z,47.43
2018-09-30T19:39:06.991Z,44.23
2018-09-30T19:41:35.676Z,45.60
2018-09-30T19:44:04.195Z,46.20
2018-09-30T19:46:32.734Z,49.03
2018-09-30T19:49:01.347Z,49.67
2018-09-30T19:51:30.040Z,43.90
2018-09-30T19:53:58.907Z,55.00
2018-09-30T19:56:28.744Z,46.43
2018-09-30T19:58:57.246Z,60.50
2018-09-30T20:01:26.280Z,50.80
2018-09-30T20:03:54.797Z,49.87
2018-09-30T20:06:23.364Z,52.93
2018-09-30T20:08:51.869Z,52.77
2018-09-30T20:11:20.878Z,46.30
2018-09-30T20:13:49.964Z,49.47
2018-09-30T20:16:18.494Z,42.60
2018-09-30T20:18:47.112Z,57.27
2018-09-30T20:21:17.530Z,49.75
2018-09-30T20:23:46.035Z,53.27
2018-09-30T20:31:13.478Z,67.80
2018-09-30T20:33:41.994Z,68.43
2018-09-30T20:36:11.418Z,54.80
2018-09-30T20:38:40.745Z,54.30
2018-09-30T20:41:09.274Z,53.00
2018-09-30T20:43:37.778Z,44.33
2018-09-30T20:46:06.479Z,50.03
2018-09-30T20:48:35.097Z,47.40
2018-09-30T20:51:03.603Z,46.13
2018-09-30T20:53:32.208Z,51.03
2018-09-30T20:56:00.759Z,48.77
2018-09-30T20:58:30.568Z,51.70
2018-09-30T21:00:59.252Z,45.83
2018-09-30T21:03:28.452Z,58.20
2018-09-30T21:06:15.419Z,52.00
2018-09-30T21:08:45.016Z,62.17
2018-09-30T21:11:13.585Z,41.40
2018-09-30T21:13:42.574Z,47.17
2018-09-30T21:16:11.211Z,51.13
2018-09-30T21:18:39.819Z,48.73
2018-09-30T21:21:09.145Z,59.13
2018-09-30T21:23:37.651Z,51.67
2018-09-30T21:26:06.225Z,47.67
2018-09-30T21:28:34.770Z,46.77
2018-09-30T21:31:03.265Z,47.43
2018-09-30T21:33:31.748Z,42.67
2018-09-30T21:36:01.290Z,45.53
2018-09-30T21:38:29.797Z,44.00
2018-09-30T21:40:58.804Z,43.37
2018-09-30T21:43:27.898Z,43.57
2018-09-30T21:45:56.377Z,49.48
2018-09-30T21:48:24.849Z,62.20
2018-09-30T21:50:53.414Z,47.97
2018-09-30T21:53:21.894Z,52.87
2018-09-30T21:55:50.497Z,44.00
2018-09-30T21:58:19.130Z,43.23
2018-09-30T22:00:53.585Z,41.10
2018-09-30T22:03:22.182Z,41.40
2018-09-30T22:05:51.322Z,50.73
2018-09-30T22:08:20.322Z,52.07
2018-09-30T22:10:49.018Z,45.50
2018-09-30T22:13:17.877Z,53.28
2018-09-30T22:15:46.472Z,41.97
2018-09-30T22:23:13.099Z,47.87
2018-09-30T22:25:41.650Z,51.00
2018-09-30T22:28:10.147Z,50.67
2018-09-30T22:30:38.699Z,51.53
2018-09-30T22:33:08.560Z,49.03
2018-09-30T22:35:37.110Z,52.63
2018-09-30T22:38:05.662Z,44.07
2018-09-30T22:40:34.150Z,47.67
2018-09-30T22:43:02.738Z,50.33
2018-09-30T22:45:31.747Z,50.53
2018-09-30T22:48:00.750Z,40.67
2018-09-30T22:50:29.297Z,52.17
2018-09-30T22:52:57.859Z,44.90
2018-09-30T22:55:26.382Z,49.77
2018-09-30T22:57:54.939Z,56.83
2018-09-30T23:00:23.614Z,41.77
2018-09-30T23:02:52.117Z,49.80
2018-09-30T23:05:20.630Z,49.13
2018-09-30T23:07:50.055Z,51.10
2018-09-30T23:10:18.599Z,45.07
2018-09-30T23:12:47.137Z,45.83
2018-09-30T23:15:18.809Z,39.55
2018-09-30T23:17:48.519Z,40.80
2018-09-30T23:20:18.458Z,47.33
2018-09-30T23:22:47.335Z,51.10
2018-09-30T23:25:17.399Z,46.23
2018-09-30T23:27:46.207Z,47.73
2018-09-30T23:35:14.494Z,42.23
2018-09-30T23:37:42.970Z,44.77
2018-09-30T23:40:11.500Z,46.10
2018-09-30T23:42:40.012Z,52.20
2018-09-30T23:45:08.543Z,48.70
2018-09-30T23:47:37.077Z,45.60
2018-09-30T23:50:05.880Z,43.97
2018-09-30T23:52:34.418Z,45.98
2018-09-30T23:55:02.942Z,42.83
2018-09-30T23:57:32.029Z,52.70
